createdAt,value
2023-07-31T00:01:24.119Z,1.58
2023-07-31T00:03:51.027Z,1.80
2023-07-31T00:06:17.805Z,1.52
2023-07-31T00:08:44.527Z,2.00
2023-07-31T00:11:11.239Z,1.90
2023-07-31T00:13:38.022Z,2.33
2023-07-31T00:16:04.801Z,2.10
2023-07-31T00:18:31.682Z,2.15
2023-07-31T00:20:58.409Z,1.50
2023-07-31T00:23:25.113Z,1.70
2023-07-31T00:25:51.846Z,1.75
2023-07-31T00:28:18.574Z,1.40
2023-07-31T00:30:45.313Z,2.08
2023-07-31T00:33:12.094Z,1.77
2023-07-31T00:35:38.831Z,2.00
2023-07-31T00:38:05.639Z,1.98
2023-07-31T00:40:38.274Z,1.70
2023-07-31T00:43:05.581Z,1.50
2023-07-31T00:45:33.400Z,1.75
2023-07-31T00:48:00.893Z,2.20
2023-07-31T00:50:28.122Z,1.80
2023-07-31T00:52:54.967Z,1.30
2023-07-31T00:55:22.904Z,1.70
2023-07-31T00:57:49.680Z,2.15
2023-07-31T01:00:16.808Z,1.42
2023-07-31T01:02:43.967Z,1.52
2023-07-31T01:05:10.736Z,1.42
2023-07-31T01:08:00.332Z,1.95
2023-07-31T01:10:38.338Z,1.92
2023-07-31T01:13:05.480Z,1.75
2023-07-31T01:15:32.263Z,1.80
2023-07-31T01:17:59.001Z,1.90
2023-07-31T01:20:27.717Z,1.70
2023-07-31T01:23:02.926Z,1.63
2023-07-31T01:25:37.020Z,1.58
2023-07-31T01:28:08.388Z,2.10
2023-07-31T01:30:38.925Z,1.75
2023-07-31T01:33:08.433Z,1.60
2023-07-31T01:35:35.943Z,1.45
2023-07-31T01:38:03.267Z,1.60
2023-07-31T01:40:30.057Z,1.60
2023-07-31T01:42:56.852Z,1.77
2023-07-31T01:45:23.625Z,2.03
2023-07-31T01:47:50.435Z,1.70
2023-07-31T01:50:17.305Z,1.77
2023-07-31T01:52:44.109Z,1.67
2023-07-31T01:55:10.861Z,1.75
2023-07-31T01:57:38.648Z,2.08
2023-07-31T02:00:06.475Z,1.83
2023-07-31T02:02:38.872Z,2.22
2023-07-31T02:05:06.425Z,2.00
2023-07-31T02:07:33.222Z,1.73
2023-07-31T02:09:59.960Z,2.35
2023-07-31T02:12:26.767Z,1.90
2023-07-31T02:14:53.480Z,2.30
2023-07-31T02:17:20.292Z,1.83
2023-07-31T02:19:47.155Z,2.00
2023-07-31T02:22:13.995Z,1.75
2023-07-31T02:24:40.778Z,1.65
2023-07-31T02:27:07.735Z,2.17
2023-07-31T02:29:34.406Z,1.60
2023-07-31T02:32:01.218Z,1.73
2023-07-31T02:34:27.956Z,1.65
2023-07-31T02:36:54.682Z,1.80
2023-07-31T02:39:21.504Z,2.00
2023-07-31T02:41:48.276Z,1.85
2023-07-31T02:44:15.531Z,1.67
2023-07-31T02:46:42.443Z,1.92
2023-07-31T02:49:09.249Z,1.67
2023-07-31T02:51:36.613Z,2.65
2023-07-31T02:54:03.290Z,1.88
2023-07-31T02:56:30.138Z,1.92
2023-07-31T02:58:56.889Z,2.00
2023-07-31T03:01:23.622Z,2.15
2023-07-31T03:03:50.411Z,2.03
2023-07-31T03:06:17.172Z,2.03
2023-07-31T03:08:45.140Z,2.15
2023-07-31T03:11:11.920Z,1.92
2023-07-31T03:13:38.625Z,2.15
2023-07-31T03:16:05.382Z,2.30
2023-07-31T03:18:32.094Z,1.92
2023-07-31T03:20:58.886Z,2.15
2023-07-31T03:23:26.788Z,2.00
2023-07-31T03:25:58.469Z,1.80
2023-07-31T03:28:28.669Z,2.10
2023-07-31T03:30:55.569Z,1.80
2023-07-31T03:33:22.600Z,2.10
2023-07-31T03:35:50.183Z,2.60
2023-07-31T03:38:16.893Z,2.13
2023-07-31T03:40:43.672Z,1.80
2023-07-31T03:43:11.914Z,2.50
2023-07-31T03:45:40.249Z,2.00
2023-07-31T03:48:08.786Z,2.38
2023-07-31T03:50:35.681Z,2.10
2023-07-31T03:53:02.438Z,2.20
2023-07-31T03:55:29.268Z,1.80
2023-07-31T03:57:56.330Z,1.70
2023-07-31T04:00:23.941Z,1.92
2023-07-31T04:02:50.715Z,1.90
2023-07-31T04:05:17.635Z,1.92
2023-07-31T04:07:44.498Z,1.90
2023-07-31T04:10:13.537Z,1.77
2023-07-31T04:12:40.867Z,2.30
2023-07-31T04:15:07.942Z,2.47
2023-07-31T04:17:34.946Z,1.95
2023-07-31T04:20:01.832Z,2.08
2023-07-31T04:22:28.676Z,2.10
2023-07-31T04:24:59.994Z,2.75
2023-07-31T04:27:30.159Z,2.35
2023-07-31T04:29:56.988Z,2.42
2023-07-31T04:32:23.894Z,1.90
2023-07-31T04:34:50.686Z,2.30
2023-07-31T04:37:17.488Z,2.47
2023-07-31T04:39:44.396Z,2.53
2023-07-31T04:42:11.511Z,2.20
2023-07-31T04:44:38.464Z,3.90
2023-07-31T04:47:05.442Z,1.98
2023-07-31T04:49:33.429Z,2.47
2023-07-31T04:52:00.170Z,2.30
2023-07-31T04:54:27.696Z,2.20
2023-07-31T04:56:54.968Z,2.55
2023-07-31T04:59:21.718Z,2.30
2023-07-31T05:01:48.617Z,1.90
2023-07-31T05:04:16.156Z,2.15
2023-07-31T05:06:43.075Z,2.30
2023-07-31T05:09:10.527Z,2.28
2023-07-31T05:11:37.299Z,2.13
2023-07-31T05:14:04.209Z,2.95
2023-07-31T05:16:31.080Z,2.22
2023-07-31T05:18:58.188Z,2.30
2023-07-31T05:21:25.240Z,2.45
2023-07-31T05:23:52.102Z,2.10
2023-07-31T05:26:19.537Z,2.22
2023-07-31T05:28:46.453Z,2.20
2023-07-31T05:31:13.546Z,2.47
2023-07-31T05:33:40.318Z,2.17
2023-07-31T05:36:07.259Z,2.17
2023-07-31T05:38:34.176Z,2.00
2023-07-31T05:41:00.978Z,2.22
2023-07-31T05:43:27.938Z,2.28
2023-07-31T05:45:55.019Z,1.90
2023-07-31T05:48:22.157Z,2.33
2023-07-31T05:50:49.146Z,2.33
2023-07-31T05:53:16.120Z,1.90
2023-07-31T05:55:43.141Z,1.85
2023-07-31T05:58:09.925Z,2.25
2023-07-31T06:00:36.754Z,2.00
2023-07-31T06:03:03.706Z,2.20
2023-07-31T06:05:31.210Z,2.40
2023-07-31T06:07:58.664Z,2.28
2023-07-31T06:10:25.787Z,2.45
2023-07-31T06:12:52.510Z,1.92
2023-07-31T06:15:20.689Z,2.38
2023-07-31T06:17:47.645Z,2.30
2023-07-31T06:20:14.482Z,2.60
2023-07-31T06:22:41.198Z,2.05
2023-07-31T06:25:08.283Z,2.17
2023-07-31T06:27:35.291Z,2.20
2023-07-31T06:30:02.107Z,2.22
2023-07-31T06:32:29.803Z,2.25
2023-07-31T06:34:56.774Z,2.30
2023-07-31T06:37:23.582Z,2.63
2023-07-31T06:39:50.557Z,2.15
2023-07-31T06:42:17.507Z,1.95
2023-07-31T06:44:44.271Z,2.13
2023-07-31T06:47:11.136Z,2.25
2023-07-31T06:49:37.992Z,2.33
2023-07-31T06:52:05.175Z,2.10
2023-07-31T06:54:31.918Z,2.03
2023-07-31T06:56:58.788Z,2.28
2023-07-31T06:59:25.622Z,2.15
2023-07-31T07:01:52.496Z,2.17
2023-07-31T07:04:19.379Z,2.13
2023-07-31T07:06:46.215Z,2.17
2023-07-31T07:09:12.917Z,2.20
2023-07-31T07:11:39.921Z,2.03
2023-07-31T07:14:06.773Z,1.90
2023-07-31T07:16:33.525Z,1.88
2023-07-31T07:19:05.018Z,1.98
2023-07-31T07:21:32.540Z,2.20
2023-07-31T07:23:59.452Z,1.98
2023-07-31T07:26:26.463Z,2.58
2023-07-31T07:28:53.494Z,2.60
2023-07-31T07:31:20.217Z,2.08
2023-07-31T07:33:47.069Z,2.33
2023-07-31T07:36:14.518Z,2.78
2023-07-31T07:38:42.098Z,1.85
2023-07-31T07:41:08.927Z,2.20
2023-07-31T07:43:35.975Z,2.22
2023-07-31T07:46:03.378Z,1.88
2023-07-31T07:48:30.234Z,2.05
2023-07-31T07:50:56.935Z,1.88
2023-07-31T07:53:23.792Z,2.38
2023-07-31T07:55:50.581Z,2.08
2023-07-31T07:58:17.405Z,2.00
2023-07-31T08:00:50.633Z,2.67
2023-07-31T08:03:18.138Z,2.40
2023-07-31T08:05:45.802Z,2.25
2023-07-31T08:08:17.303Z,2.10
2023-07-31T08:10:44.833Z,2.20
2023-07-31T08:13:12.870Z,2.03
2023-07-31T08:15:42.431Z,2.33
2023-07-31T08:18:09.364Z,2.28
2023-07-31T08:20:36.141Z,2.58
2023-07-31T08:23:02.895Z,2.00
2023-07-31T08:25:29.691Z,3.00
2023-07-31T08:27:56.716Z,3.03
2023-07-31T08:30:23.769Z,2.00
2023-07-31T08:32:50.611Z,2.38
2023-07-31T08:35:17.504Z,2.75
2023-07-31T08:37:44.357Z,1.98
2023-07-31T08:40:11.669Z,2.28
2023-07-31T08:42:48.034Z,2.72
2023-07-31T08:45:16.731Z,2.80
2023-07-31T08:47:51.797Z,2.15
2023-07-31T08:50:22.783Z,2.38
2023-07-31T08:52:51.486Z,2.10
2023-07-31T08:55:24.646Z,2.20
2023-07-31T08:57:54.484Z,1.92
2023-07-31T09:00:22.315Z,2.20
2023-07-31T09:03:04.625Z,2.90
2023-07-31T09:05:32.667Z,2.10
2023-07-31T09:07:59.656Z,2.60
2023-07-31T09:10:26.360Z,2.25
2023-07-31T09:12:53.306Z,2.67
2023-07-31T09:15:27.811Z,2.72
2023-07-31T09:18:03.801Z,2.85
2023-07-31T09:20:30.722Z,2.33
2023-07-31T09:22:59.337Z,2.60
2023-07-31T09:25:27.345Z,2.05
2023-07-31T09:28:02.022Z,2.30
2023-07-31T09:30:28.922Z,2.83
2023-07-31T09:33:03.845Z,3.08
2023-07-31T09:35:35.303Z,3.22
2023-07-31T09:38:06.751Z,2.42
2023-07-31T09:40:35.170Z,2.95
2023-07-31T09:43:03.338Z,2.38
2023-07-31T09:45:40.775Z,2.60
2023-07-31T09:48:18.596Z,2.70
2023-07-31T09:50:47.747Z,3.10
2023-07-31T09:53:15.181Z,2.78
2023-07-31T09:55:42.508Z,2.80
2023-07-31T09:58:11.008Z,2.65
2023-07-31T10:00:38.387Z,2.63
2023-07-31T10:03:07.048Z,2.85
2023-07-31T10:05:37.824Z,2.95
2023-07-31T10:08:05.037Z,2.70
2023-07-31T10:10:32.462Z,2.83
2023-07-31T10:13:01.132Z,2.83
2023-07-31T10:15:28.483Z,2.90
2023-07-31T10:17:55.692Z,3.00
2023-07-31T10:20:22.954Z,2.58
2023-07-31T10:22:50.193Z,2.70
2023-07-31T10:25:18.224Z,3.40
2023-07-31T10:27:45.956Z,2.50
2023-07-31T10:30:16.568Z,2.92
2023-07-31T10:32:49.866Z,3.10
2023-07-31T10:35:17.523Z,2.97
2023-07-31T10:37:44.819Z,2.50
2023-07-31T10:40:20.997Z,3.20
2023-07-31T10:42:53.854Z,2.72
2023-07-31T10:48:02.881Z,2.53
2023-07-31T10:50:33.726Z,2.95
2023-07-31T10:53:04.581Z,2.90
2023-07-31T10:55:52.520Z,2.85
2023-07-31T10:58:21.412Z,3.15
2023-07-31T11:00:48.316Z,2.40
2023-07-31T11:03:17.434Z,3.20
2023-07-31T11:05:56.871Z,2.65
2023-07-31T11:08:27.329Z,2.50
2023-07-31T11:11:03.355Z,2.60
2023-07-31T11:13:33.761Z,2.67
2023-07-31T11:16:01.461Z,2.70
2023-07-31T11:18:28.396Z,3.20
2023-07-31T11:20:55.528Z,2.65
2023-07-31T11:23:23.147Z,2.70
2023-07-31T11:25:51.072Z,2.60
2023-07-31T11:28:19.722Z,3.10
2023-07-31T11:30:47.630Z,3.25
2023-07-31T11:33:15.371Z,2.67
2023-07-31T11:35:46.116Z,2.90
2023-07-31T11:38:28.161Z,3.90
2023-07-31T11:40:56.752Z,3.33
2023-07-31T11:43:24.306Z,3.08
2023-07-31T11:45:58.700Z,2.83
2023-07-31T11:48:27.815Z,2.70
2023-07-31T11:50:55.591Z,2.92
2023-07-31T11:53:36.609Z,2.80
2023-07-31T11:56:05.535Z,2.85
2023-07-31T11:58:32.955Z,2.95
2023-07-31T12:01:00.394Z,3.10
2023-07-31T12:03:27.881Z,2.80
2023-07-31T12:05:55.003Z,2.72
2023-07-31T12:08:23.918Z,2.95
2023-07-31T12:10:54.623Z,2.30
2023-07-31T12:13:23.350Z,2.80
2023-07-31T12:15:50.276Z,2.80
2023-07-31T12:18:21.649Z,3.08
2023-07-31T12:20:50.540Z,2.83
2023-07-31T12:23:30.792Z,2.53
2023-07-31T12:26:05.173Z,3.17
2023-07-31T12:28:36.632Z,3.28
2023-07-31T12:31:03.895Z,2.67
2023-07-31T12:33:36.304Z,2.88
2023-07-31T12:36:04.737Z,2.70
2023-07-31T12:38:31.914Z,3.35
2023-07-31T12:40:58.816Z,2.80
2023-07-31T12:43:25.727Z,2.90
2023-07-31T12:45:52.722Z,2.75
2023-07-31T12:48:19.469Z,2.85
2023-07-31T12:50:46.444Z,2.58
2023-07-31T12:53:13.304Z,2.53
2023-07-31T12:55:40.093Z,3.15
2023-07-31T12:58:06.911Z,2.60
2023-07-31T13:00:33.883Z,3.00
2023-07-31T13:03:01.525Z,2.85
2023-07-31T13:05:29.012Z,2.80
2023-07-31T13:07:55.875Z,2.58
2023-07-31T13:10:24.034Z,2.58
2023-07-31T13:12:51.539Z,3.05
2023-07-31T13:15:19.401Z,2.92
2023-07-31T13:17:47.558Z,3.42
2023-07-31T13:20:14.455Z,2.75
2023-07-31T13:22:44.130Z,3.00
2023-07-31T13:25:13.525Z,3.17
2023-07-31T13:27:40.777Z,3.08
2023-07-31T13:30:08.351Z,2.75
2023-07-31T13:32:39.584Z,2.53
2023-07-31T13:35:07.738Z,2.97
2023-07-31T13:37:34.792Z,2.85
2023-07-31T13:40:01.936Z,2.95
2023-07-31T13:42:29.838Z,2.53
2023-07-31T13:44:57.440Z,2.80
2023-07-31T13:47:24.381Z,2.63
2023-07-31T13:49:51.217Z,2.72
2023-07-31T13:52:18.039Z,2.95
2023-07-31T13:54:44.866Z,2.55
2023-07-31T13:57:23.879Z,2.58
2023-07-31T13:59:56.525Z,2.60
2023-07-31T14:02:24.628Z,3.00
2023-07-31T14:04:54.118Z,2.83
2023-07-31T14:07:21.344Z,2.78
2023-07-31T14:09:48.344Z,2.63
2023-07-31T14:12:25.065Z,3.00
2023-07-31T14:15:04.088Z,2.47
2023-07-31T14:17:31.371Z,2.60
2023-07-31T14:20:00.522Z,2.53
2023-07-31T14:22:30.538Z,2.35
2023-07-31T14:25:00.489Z,2.40
2023-07-31T14:27:27.813Z,2.58
2023-07-31T14:29:54.697Z,2.63
2023-07-31T14:32:27.354Z,2.65
2023-07-31T14:37:27.294Z,2.88
2023-07-31T14:39:59.086Z,2.47
2023-07-31T14:42:25.922Z,2.80
2023-07-31T14:44:52.824Z,2.38
2023-07-31T14:47:19.814Z,2.50
2023-07-31T14:49:47.108Z,3.00
2023-07-31T14:52:13.902Z,2.42
2023-07-31T14:57:27.340Z,2.60
2023-07-31T14:59:54.700Z,2.83
2023-07-31T15:02:22.953Z,2.35
2023-07-31T15:04:51.969Z,2.63
2023-07-31T15:07:55.953Z,3.28
2023-07-31T15:10:27.379Z,3.10
2023-07-31T15:12:54.385Z,2.70
2023-07-31T15:15:21.378Z,2.55
2023-07-31T15:17:48.321Z,3.10
2023-07-31T15:20:15.357Z,2.83
2023-07-31T15:22:42.229Z,2.60
2023-07-31T15:25:10.150Z,2.50
2023-07-31T15:27:37.190Z,3.20
2023-07-31T15:30:58.274Z,3.15
2023-07-31T15:33:25.419Z,2.78
2023-07-31T15:35:55.211Z,2.58
2023-07-31T15:38:22.762Z,2.63
2023-07-31T15:40:49.952Z,2.30
2023-07-31T15:43:18.093Z,2.50
2023-07-31T15:45:45.006Z,2.33
2023-07-31T15:48:11.989Z,2.47
2023-07-31T15:50:38.937Z,3.08
2023-07-31T15:53:05.920Z,3.20
2023-07-31T15:55:34.271Z,2.35
2023-07-31T15:58:01.461Z,2.80
2023-07-31T16:00:28.533Z,2.92
2023-07-31T16:02:55.469Z,2.80
2023-07-31T16:05:22.597Z,2.67
2023-07-31T16:07:49.371Z,3.08
2023-07-31T16:10:16.162Z,2.88
2023-07-31T16:12:43.143Z,3.15
2023-07-31T16:15:10.124Z,2.90
2023-07-31T16:17:37.064Z,2.42
2023-07-31T16:20:04.882Z,3.25
2023-07-31T16:22:31.694Z,2.60
2023-07-31T16:24:58.435Z,2.50
2023-07-31T16:27:25.854Z,2.72
2023-07-31T16:29:52.833Z,2.58
2023-07-31T16:32:19.954Z,3.17
2023-07-31T16:34:46.770Z,2.47
2023-07-31T16:37:13.771Z,3.00
2023-07-31T16:39:41.683Z,3.22
2023-07-31T16:42:08.792Z,3.25
2023-07-31T16:44:35.679Z,2.50
2023-07-31T16:47:02.852Z,2.75
2023-07-31T16:49:29.998Z,2.83
2023-07-31T16:51:56.912Z,2.70
2023-07-31T16:54:23.943Z,2.90
2023-07-31T16:56:59.496Z,2.35
2023-07-31T16:59:28.193Z,2.60
2023-07-31T17:01:59.284Z,3.15
2023-07-31T17:04:27.805Z,2.88
2023-07-31T17:06:54.859Z,2.80
2023-07-31T17:09:21.623Z,3.00
2023-07-31T17:11:48.622Z,2.63
2023-07-31T17:14:16.665Z,2.70
2023-07-31T17:16:43.954Z,2.42
2023-07-31T17:19:10.782Z,2.85
2023-07-31T17:21:38.447Z,3.05
2023-07-31T17:24:05.655Z,2.70
2023-07-31T17:26:32.539Z,2.63
2023-07-31T17:29:01.413Z,2.80
2023-07-31T17:31:28.536Z,2.88
2023-07-31T17:33:55.684Z,2.58
2023-07-31T17:36:22.801Z,2.60
2023-07-31T17:38:49.649Z,2.60
2023-07-31T17:41:16.608Z,3.20
2023-07-31T17:43:44.645Z,3.15
2023-07-31T17:46:11.510Z,3.05
2023-07-31T17:48:39.304Z,2.90
2023-07-31T17:51:06.136Z,3.25
2023-07-31T17:53:33.027Z,2.83
2023-07-31T17:55:59.913Z,3.28
2023-07-31T17:58:26.851Z,3.10
2023-07-31T18:00:54.257Z,3.38
2023-07-31T18:03:22.475Z,2.97
2023-07-31T18:05:49.477Z,3.53
2023-07-31T18:08:20.014Z,3.53
2023-07-31T18:10:51.759Z,3.33
2023-07-31T18:13:18.680Z,4.25
2023-07-31T18:15:46.620Z,3.55
2023-07-31T18:18:13.969Z,3.90
2023-07-31T18:20:41.212Z,3.17
2023-07-31T18:23:08.240Z,3.35
2023-07-31T18:25:35.003Z,3.13
2023-07-31T18:28:01.847Z,3.50
2023-07-31T18:30:28.876Z,3.25
2023-07-31T18:32:55.753Z,3.28
2023-07-31T18:35:22.944Z,3.20
2023-07-31T18:37:50.154Z,3.40
2023-07-31T18:40:17.179Z,3.33
2023-07-31T18:42:44.233Z,3.65
2023-07-31T18:45:11.054Z,3.47
2023-07-31T18:47:37.972Z,3.60
2023-07-31T18:50:05.442Z,2.90
2023-07-31T18:52:33.056Z,3.10
2023-07-31T18:54:59.930Z,3.33
2023-07-31T18:57:27.060Z,3.70
2023-07-31T18:59:53.906Z,3.28
2023-07-31T19:02:20.842Z,3.85
2023-07-31T19:04:47.743Z,3.88
2023-07-31T19:07:14.786Z,3.95
2023-07-31T19:09:41.856Z,4.10
2023-07-31T19:12:08.809Z,4.35
2023-07-31T19:14:36.759Z,3.67
2023-07-31T19:17:03.702Z,3.70
2023-07-31T19:19:30.806Z,3.83
2023-07-31T19:21:58.201Z,3.92
2023-07-31T19:24:27.741Z,3.67
2023-07-31T19:26:58.937Z,3.80
2023-07-31T19:29:25.958Z,3.42
2023-07-31T19:31:55.186Z,3.80
2023-07-31T19:34:26.503Z,3.70
2023-07-31T19:36:53.652Z,3.90
2023-07-31T19:39:20.563Z,3.70
2023-07-31T19:41:47.446Z,3.38
2023-07-31T19:44:14.377Z,3.63
2023-07-31T19:46:41.528Z,3.78
2023-07-31T19:49:09.205Z,4.50
2023-07-31T19:51:36.061Z,3.55
2023-07-31T19:54:02.830Z,3.90
2023-07-31T19:56:30.194Z,3.88
2023-07-31T19:58:57.157Z,3.70
2023-07-31T20:01:28.447Z,4.38
2023-07-31T20:03:57.657Z,4.07
2023-07-31T20:06:25.376Z,3.90
2023-07-31T20:08:52.324Z,3.38
2023-07-31T20:11:19.271Z,4.20
2023-07-31T20:13:46.050Z,3.55
2023-07-31T20:16:12.904Z,3.80
2023-07-31T20:18:44.908Z,3.78
2023-07-31T20:21:12.068Z,3.22
2023-07-31T20:23:43.037Z,4.15
2023-07-31T20:26:10.743Z,3.15
2023-07-31T20:28:37.768Z,3.55
2023-07-31T20:31:04.807Z,3.65
2023-07-31T20:33:31.744Z,3.40
2023-07-31T20:35:58.585Z,4.53
2023-07-31T20:38:25.315Z,4.05
2023-07-31T20:40:54.982Z,3.90
2023-07-31T20:43:21.693Z,3.60
2023-07-31T20:45:48.523Z,4.22
2023-07-31T20:48:15.954Z,3.40
2023-07-31T20:50:42.934Z,3.45
2023-07-31T20:53:09.870Z,3.65
2023-07-31T20:55:38.921Z,3.33
2023-07-31T20:58:06.018Z,3.38
2023-07-31T21:00:33.024Z,3.53
2023-07-31T21:03:00.098Z,3.90
2023-07-31T21:05:26.881Z,3.55
2023-07-31T21:07:53.681Z,3.10
2023-07-31T21:10:21.039Z,3.70
2023-07-31T21:12:47.745Z,3.63
2023-07-31T21:15:14.660Z,3.80
2023-07-31T21:17:41.463Z,3.67
2023-07-31T21:20:08.535Z,3.80
2023-07-31T21:22:35.312Z,4.05
2023-07-31T21:25:02.084Z,3.85
2023-07-31T21:27:29.543Z,3.95
2023-07-31T21:29:56.302Z,4.00
2023-07-31T21:32:23.106Z,3.20
2023-07-31T21:34:49.829Z,3.40
2023-07-31T21:37:16.527Z,3.53
2023-07-31T21:39:43.302Z,4.18
2023-07-31T21:42:10.375Z,3.88
2023-07-31T21:44:37.118Z,4.05
2023-07-31T21:47:04.021Z,3.30
2023-07-31T21:49:30.791Z,3.17
2023-07-31T21:51:57.526Z,3.47
2023-07-31T21:54:24.230Z,3.30
2023-07-31T21:56:50.975Z,3.22
2023-07-31T21:59:17.702Z,3.30
2023-07-31T22:01:44.457Z,3.80
2023-07-31T22:04:11.252Z,2.97
2023-07-31T22:06:38.221Z,3.05
2023-07-31T22:09:05.302Z,3.20
2023-07-31T22:11:32.172Z,3.70
2023-07-31T22:13:58.947Z,3.60
2023-07-31T22:16:25.726Z,3.45
2023-07-31T22:18:52.511Z,3.70
2023-07-31T22:21:20.330Z,4.40
2023-07-31T22:23:47.110Z,3.20
2023-07-31T22:26:13.925Z,2.90
2023-07-31T22:28:40.725Z,3.90
2023-07-31T22:31:09.001Z,3.50
2023-07-31T22:33:36.513Z,3.78
2023-07-31T22:36:03.348Z,3.63
2023-07-31T22:38:30.088Z,3.53
2023-07-31T22:40:56.871Z,3.35
2023-07-31T22:43:23.710Z,3.58
2023-07-31T22:45:50.607Z,3.30
2023-07-31T22:48:17.417Z,3.67
2023-07-31T22:50:44.472Z,3.65
2023-07-31T22:53:11.245Z,3.25
2023-07-31T22:55:37.976Z,3.13
2023-07-31T22:58:04.771Z,3.55
2023-07-31T23:00:31.701Z,3.67
2023-07-31T23:02:58.526Z,3.55
2023-07-31T23:05:25.366Z,3.90
2023-07-31T23:07:52.370Z,3.72
2023-07-31T23:10:19.169Z,4.35
2023-07-31T23:12:46.234Z,3.70
2023-07-31T23:15:13.241Z,3.58
2023-07-31T23:17:40.008Z,4.38
2023-07-31T23:20:07.217Z,3.53
2023-07-31T23:22:34.026Z,3.90
2023-07-31T23:25:00.766Z,3.03
2023-07-31T23:27:27.564Z,3.97
2023-07-31T23:29:54.332Z,4.00
2023-07-31T23:32:21.240Z,3.65
2023-07-31T23:34:48.243Z,3.75
2023-07-31T23:37:15.032Z,3.70
2023-07-31T23:39:41.749Z,3.35
2023-07-31T23:42:08.541Z,3.40
2023-07-31T23:44:36.020Z,3.53
2023-07-31T23:47:02.868Z,3.42
2023-07-31T23:49:29.727Z,3.40
2023-07-31T23:51:56.688Z,3.28
2023-07-31T23:54:23.514Z,3.53
2023-07-31T23:56:50.368Z,3.97
2023-07-31T23:59:17.216Z,3.70
